This is the latest recevied weather packets stored in our database for station/object GOLDWX. If no packets are shown the sender has not sent any weather packets the latest 10 day(s).
| Time | Temp. | Humidity | Pressure | Rain* | Wind** | Luminosity | Snow |
|---|---|---|---|---|---|---|---|
| 1777252115 | 10° C | 62% | 1008.8 hPa | 0 mm | - | - | - |
| 1777251814 | 10° C | 61% | 1008.9 hPa | 0 mm | - | - | - |
| 1777251213 | 10.56° C | 64% | 1008.8 hPa | 0 mm | - | - | - |
| 1777250912 | 11.11° C | 59% | 1008.8 hPa | 0 mm | - | - | - |
| 1777250310 | 12.22° C | 54% | 1008.7 hPa | 0 mm | - | - | - |
| 1777250010 | 12.22° C | 51% | 1008.6 hPa | 0 mm | - | - | - |
| 1777249408 | 12.78° C | 47% | 1008.7 hPa | 0 mm | - | - | - |
| 1777249107 | 13.33° C | 47% | 1008.5 hPa | 0 mm | - | - | - |
| 1777248505 | 13.89° C | 45% | 1008.1 hPa | 0 mm | - | - | - |
| 1777248203 | 13.89° C | 45% | 1008 hPa | 0 mm | - | - | - |
| 1777247601 | 13.89° C | 43% | 1007.8 hPa | 0 mm | - | - | - |
| 1777247300 | 14.44° C | 44% | 1007.7 hPa | 5.08 mm | - | - | - |
| 1777246698 | 15° C | 43% | 1007.7 hPa | 5.08 mm | - | - | - |
| 1777246398 | 15.56° C | 43% | 1007.5 hPa | 5.08 mm | - | - | - |
| 1777245796 | 15.56° C | 43% | 1007.5 hPa | 5.08 mm | - | - | - |
| 1777244893 | 15.56° C | 43% | 1007.4 hPa | 5.08 mm | - | - | - |
| 1777244593 | 15.56° C | 43% | 1007.4 hPa | 5.08 mm | - | - | - |
| 1777243991 | 15° C | 42% | 1007.3 hPa | 5.08 mm | - | - | - |
| 1777243690 | 14.44° C | 47% | 1007.4 hPa | 5.08 mm | - | - | - |
| 1777243088 | 15.56° C | 41% | 1007.4 hPa | 5.08 mm | - | - | - |
| 1777242788 | 15.56° C | 43% | 1007.6 hPa | 5.08 mm | - | - | - |
| 1777242185 | 15° C | 43% | 1007.6 hPa | 5.08 mm | - | - | - |
| 1777241884 | 15° C | 42% | 1007.7 hPa | 5.08 mm | - | - | - |
| 1777241282 | 15.56° C | 40% | 1007.7 hPa | 5.08 mm | - | - | - |
| 1777240981 | 15.56° C | 42% | 1007.8 hPa | 5.08 mm | - | - | - |
* Rain since midnight (hover to see other rain measurements)
** Current wind speed in m/s (hover to see current wind gust speed)